Time;durP1;ratioP1;P1;durP2;ratioP2;P2;SDS_P1;SDS_P2;PMS_P1;PMS_P2;Temp;Humidity;BMP_temperature;BMP_pressure;BME280_temperature;BME280_humidity;BME280_pressure;Samples;Min_cycle;Max_cycle;Signal;HPM_P1;HPM_P2
2021/09/03 00:02:14;;;;;;;15.07;8.27;;;;;;;;;;5045691;28;20043;-60
2021/09/03 00:04:41;;;;;;;14.60;8.25;;;;;;;;;;5049032;28;20033;-59
2021/09/03 00:07:06;;;;;;;14.30;8.20;;;;;;;;;;5050188;28;20155;-60
2021/09/03 00:09:31;;;;;;;16.40;8.60;;;;;;;;;;5050058;28;20110;-60
2021/09/03 00:11:57;;;;;;;17.75;8.15;;;;;;;;;;5047740;28;20480;-59
2021/09/03 00:14:22;;;;;;;15.27;7.30;;;;;;;;;;5065296;28;20220;-59
2021/09/03 00:16:48;;;;;;;13.30;7.72;;;;;;;;;;5050377;28;21110;-59
2021/09/03 00:19:14;;;;;;;19.33;8.50;;;;;;;;;;5048209;28;20035;-59
2021/09/03 00:21:39;;;;;;;12.60;7.57;;;;;;;;;;5050343;28;20491;-59
2021/09/03 00:24:04;;;;;;;14.52;7.78;;;;;;;;;;5051021;28;20021;-60
2021/09/03 00:26:30;;;;;;;14.32;7.80;;;;;;;;;;5047902;28;20036;-60
2021/09/03 00:28:55;;;;;;;15.63;8.00;;;;;;;;;;5049419;28;20407;-60
2021/09/03 00:31:21;;;;;;;17.45;9.32;;;;;;;;;;5051401;28;20381;-60
2021/09/03 00:33:46;;;;;;;13.63;7.88;;;;;;;;;;5047225;28;20124;-60
2021/09/03 00:36:12;;;;;;;16.23;8.50;;;;;;;;;;5051851;28;20044;-61
2021/09/03 00:38:37;;;;;;;17.13;8.05;;;;;;;;;;5063682;28;20104;-60
2021/09/03 00:41:03;;;;;;;18.02;7.97;;;;;;;;;;5050296;28;20036;-60
2021/09/03 00:43:29;;;;;;;17.13;8.50;;;;;;;;;;5051151;28;20116;-62
2021/09/03 00:45:56;;;;;;;15.73;8.13;;;;;;;;;;5049152;28;20108;-60
2021/09/03 00:48:21;;;;;;;14.82;8.02;;;;;;;;;;5049044;28;20575;-60
2021/09/03 00:50:47;;;;;;;14.68;7.38;;;;;;;;;;5050354;28;20115;-61
2021/09/03 00:53:13;;;;;;;15.93;8.55;;;;;;;;;;5048259;28;20480;-61
2021/09/03 00:55:39;;;;;;;15.95;8.68;;;;;;;;;;5064408;28;20040;-61
2021/09/03 00:58:04;;;;;;;15.50;8.32;;;;;;;;;;5054576;28;20475;-59
2021/09/03 01:00:30;;;;;;;12.98;7.60;;;;;;;;;;5050620;28;20092;-61
2021/09/03 01:02:55;;;;;;;16.20;8.88;;;;;;;;;;5048264;28;20098;-61
2021/09/03 01:05:23;;;;;;;16.65;8.35;;;;;;;;;;5050740;28;20429;-60
2021/09/03 01:07:50;;;;;;;14.88;8.30;;;;;;;;;;5048129;28;20033;-60
2021/09/03 01:10:18;;;;;;;15.65;8.88;;;;;;;;;;5048287;28;20021;-60
2021/09/03 01:12:44;;;;;;;15.95;8.30;;;;;;;;;;5030118;28;20035;-60
2021/09/03 01:15:09;;;;;;;15.10;8.35;;;;;;;;;;5049465;28;20036;-60
2021/09/03 01:17:37;;;;;;;16.23;8.27;;;;;;;;;;5050345;28;20123;-60
2021/09/03 01:20:03;;;;;;;14.55;7.55;;;;;;;;;;5062631;28;20494;-60
2021/09/03 01:22:28;;;;;;;15.85;8.35;;;;;;;;;;5047810;28;20037;-61
2021/09/03 01:24:54;;;;;;;14.13;8.00;;;;;;;;;;5051948;28;20055;-60
2021/09/03 01:27:19;;;;;;;14.80;8.48;;;;;;;;;;5048212;28;20020;-60
2021/09/03 01:29:45;;;;;;;19.17;8.38;;;;;;;;;;5048675;28;20419;-59
2021/09/03 01:32:10;;;;;;;15.13;7.78;;;;;;;;;;5048593;28;20029;-60
2021/09/03 01:34:36;;;;;;;18.65;8.65;;;;;;;;;;5049572;28;20017;-59
2021/09/03 01:37:01;;;;;;;15.05;8.27;;;;;;;;;;5054749;28;20033;-60
2021/09/03 01:39:27;;;;;;;14.18;7.93;;;;;;;;;;5047724;28;20530;-60
2021/09/03 01:41:52;;;;;;;15.43;8.05;;;;;;;;;;5051630;28;20056;-60
2021/09/03 01:44:17;;;;;;;14.60;7.93;;;;;;;;;;5049600;28;20080;-60
2021/09/03 01:46:43;;;;;;;18.35;7.97;;;;;;;;;;5048262;28;20124;-60
2021/09/03 01:49:08;;;;;;;16.27;8.23;;;;;;;;;;5047217;28;20063;-60
2021/09/03 01:51:34;;;;;;;14.85;8.43;;;;;;;;;;5047822;28;20086;-60
2021/09/03 01:53:59;;;;;;;16.98;8.38;;;;;;;;;;5050745;28;20082;-60
2021/09/03 01:56:25;;;;;;;18.65;8.52;;;;;;;;;;5065769;28;20082;-61
2021/09/03 01:58:50;;;;;;;15.43;8.30;;;;;;;;;;5053437;28;20029;-60
2021/09/03 02:01:16;;;;;;;16.42;8.10;;;;;;;;;;5055712;28;20029;-60
2021/09/03 02:03:41;;;;;;;13.30;7.25;;;;;;;;;;5048953;28;20033;-60
2021/09/03 02:06:07;;;;;;;14.30;8.20;;;;;;;;;;5048457;28;20044;-60
2021/09/03 02:08:32;;;;;;;17.45;8.40;;;;;;;;;;5048278;28;20025;-60
2021/09/03 02:10:57;;;;;;;17.80;8.70;;;;;;;;;;5047709;28;20036;-60
2021/09/03 02:13:23;;;;;;;16.27;7.95;;;;;;;;;;5047802;28;20192;-60
2021/09/03 02:15:49;;;;;;;15.18;8.90;;;;;;;;;;5047960;28;20111;-60
2021/09/03 02:18:15;;;;;;;17.42;8.40;;;;;;;;;;5046335;28;20395;-60
2021/09/03 02:20:41;;;;;;;16.52;7.85;;;;;;;;;;5050806;28;20021;-60
2021/09/03 02:23:06;;;;;;;16.60;8.05;;;;;;;;;;5048246;28;20027;-60
2021/09/03 02:25:32;;;;;;;15.55;7.78;;;;;;;;;;5049053;28;20028;-60
2021/09/03 02:27:57;;;;;;;14.10;7.90;;;;;;;;;;5048194;28;20151;-60
2021/09/03 02:30:22;;;;;;;16.02;8.43;;;;;;;;;;5044924;28;20407;-59
2021/09/03 02:32:48;;;;;;;16.92;8.07;;;;;;;;;;5047869;28;20044;-60
2021/09/03 02:35:13;;;;;;;18.17;8.80;;;;;;;;;;5050361;28;20402;-59
2021/09/03 02:37:39;;;;;;;14.57;8.23;;;;;;;;;;5047863;28;20597;-60
2021/09/03 02:40:05;;;;;;;17.70;8.23;;;;;;;;;;5046380;28;20036;-60
2021/09/03 02:42:31;;;;;;;15.05;7.90;;;;;;;;;;5046587;28;20112;-60
2021/09/03 02:44:56;;;;;;;17.45;7.85;;;;;;;;;;5051080;28;20111;-60
2021/09/03 02:47:22;;;;;;;19.08;8.75;;;;;;;;;;5045297;28;20059;-60
2021/09/03 02:49:47;;;;;;;15.05;8.07;;;;;;;;;;5044653;28;20091;-60
2021/09/03 02:52:13;;;;;;;13.73;8.05;;;;;;;;;;5047006;28;20029;-60
2021/09/03 02:54:38;;;;;;;15.13;7.03;;;;;;;;;;5050731;28;20029;-60
2021/09/03 02:57:04;;;;;;;16.65;7.50;;;;;;;;;;5050288;28;20017;-60
2021/09/03 02:59:29;;;;;;;15.80;8.68;;;;;;;;;;5046997;28;20496;-60
2021/09/03 03:01:54;;;;;;;13.63;7.95;;;;;;;;;;5045722;28;20029;-60
2021/09/03 03:04:20;;;;;;;17.88;7.72;;;;;;;;;;5048541;28;20074;-60
2021/09/03 03:06:45;;;;;;;15.48;7.85;;;;;;;;;;5046580;28;20039;-60
2021/09/03 03:09:11;;;;;;;16.08;8.60;;;;;;;;;;5046663;28;20050;-60
2021/09/03 03:11:36;;;;;;;13.90;7.95;;;;;;;;;;5045855;28;20115;-60
2021/09/03 03:14:04;;;;;;;18.48;9.38;;;;;;;;;;5046421;28;20025;-60
2021/09/03 03:16:30;;;;;;;22.30;9.20;;;;;;;;;;5045398;28;20068;-60
2021/09/03 03:18:55;;;;;;;17.50;8.25;;;;;;;;;;5046935;28;20060;-60
2021/09/03 03:21:21;;;;;;;16.27;8.63;;;;;;;;;;5048232;28;20020;-60
2021/09/03 03:23:46;;;;;;;17.48;8.73;;;;;;;;;;5063842;28;20020;-60
2021/09/03 03:26:12;;;;;;;13.63;7.75;;;;;;;;;;5061451;28;20083;-60
2021/09/03 03:28:37;;;;;;;15.98;9.20;;;;;;;;;;5050036;28;20361;-60
2021/09/03 03:31:02;;;;;;;17.05;8.48;;;;;;;;;;5046860;28;20064;-60
2021/09/03 03:33:28;;;;;;;16.27;8.50;;;;;;;;;;5047649;28;20385;-60
2021/09/03 03:35:53;;;;;;;18.08;9.10;;;;;;;;;;5048082;28;20116;-60
2021/09/03 03:38:19;;;;;;;16.40;8.57;;;;;;;;;;5050639;28;20111;-60
2021/09/03 03:40:44;;;;;;;16.85;8.23;;;;;;;;;;5050842;28;20027;-60
2021/09/03 03:43:09;;;;;;;18.75;9.38;;;;;;;;;;5052537;28;20131;-60
2021/09/03 03:45:35;;;;;;;20.15;8.68;;;;;;;;;;5052918;28;20037;-60
2021/09/03 03:48:00;;;;;;;15.98;8.82;;;;;;;;;;5048776;28;20437;-60
2021/09/03 03:50:26;;;;;;;18.67;8.65;;;;;;;;;;5056093;28;20071;-60
2021/09/03 03:52:51;;;;;;;16.60;8.85;;;;;;;;;;5053872;28;20044;-60
2021/09/03 03:55:16;;;;;;;15.63;8.95;;;;;;;;;;5051114;28;20490;-60
2021/09/03 03:57:42;;;;;;;17.77;8.45;;;;;;;;;;5050324;28;20060;-60
2021/09/03 04:00:07;;;;;;;19.80;8.88;;;;;;;;;;5050275;28;20043;-60
2021/09/03 04:02:33;;;;;;;14.52;7.50;;;;;;;;;;5053217;28;20037;-61
2021/09/03 04:04:58;;;;;;;16.95;9.00;;;;;;;;;;5051521;28;20130;-60
2021/09/03 04:07:24;;;;;;;17.42;9.43;;;;;;;;;;5050286;28;20013;-60
2021/09/03 04:09:49;;;;;;;24.27;11.65;;;;;;;;;;5047904;28;20499;-60
2021/09/03 04:12:15;;;;;;;20.95;10.07;;;;;;;;;;5031973;28;20021;-60
2021/09/03 04:14:41;;;;;;;17.02;9.32;;;;;;;;;;5050862;28;20036;-60
2021/09/03 04:17:06;;;;;;;17.60;8.85;;;;;;;;;;5050354;28;20036;-60
2021/09/03 04:19:32;;;;;;;20.92;10.23;;;;;;;;;;5050580;28;20233;-60
2021/09/03 04:21:57;;;;;;;21.88;10.35;;;;;;;;;;5047864;28;20498;-60
2021/09/03 04:24:23;;;;;;;23.77;11.32;;;;;;;;;;5050099;28;20029;-60
2021/09/03 04:26:48;;;;;;;22.25;11.05;;;;;;;;;;5052605;28;20029;-60
2021/09/03 04:29:13;;;;;;;21.05;9.95;;;;;;;;;;5049019;28;20056;-60
2021/09/03 04:31:39;;;;;;;19.02;9.65;;;;;;;;;;5048862;28;20434;-60
2021/09/03 04:34:04;;;;;;;19.50;10.18;;;;;;;;;;5048739;28;20356;-59
2021/09/03 04:36:30;;;;;;;19.73;10.43;;;;;;;;;;5049683;28;20037;-61
2021/09/03 04:38:55;;;;;;;19.02;10.30;;;;;;;;;;5051820;28;20360;-60
2021/09/03 04:41:20;;;;;;;23.10;10.90;;;;;;;;;;5051161;28;20436;-60
2021/09/03 04:43:46;;;;;;;22.02;11.07;;;;;;;;;;5051463;28;20502;-60
2021/09/03 04:46:11;;;;;;;21.42;9.93;;;;;;;;;;5049814;28;20032;-60
2021/09/03 04:48:37;;;;;;;17.77;9.70;;;;;;;;;;5048477;28;20021;-60
2021/09/03 04:51:02;;;;;;;17.33;8.95;;;;;;;;;;5049657;28;20032;-60
2021/09/03 04:53:28;;;;;;;16.83;8.90;;;;;;;;;;5032672;28;20037;-60
2021/09/03 04:55:53;;;;;;;16.77;8.82;;;;;;;;;;5050034;28;20553;-60
2021/09/03 04:58:19;;;;;;;18.40;9.45;;;;;;;;;;5050981;28;20083;-59
2021/09/03 05:00:44;;;;;;;15.02;8.32;;;;;;;;;;5050906;28;20032;-60
2021/09/03 05:03:10;;;;;;;20.33;9.55;;;;;;;;;;5048972;28;20055;-60
2021/09/03 05:05:35;;;;;;;17.15;9.30;;;;;;;;;;5048742;28;20051;-60
2021/09/03 05:08:01;;;;;;;21.55;10.60;;;;;;;;;;5047869;28;20032;-60
2021/09/03 05:10:26;;;;;;;19.20;9.38;;;;;;;;;;5047667;28;20028;-59
2021/09/03 05:12:52;;;;;;;19.60;9.80;;;;;;;;;;5046725;28;20024;-60
2021/09/03 05:15:20;;;;;;;17.35;9.40;;;;;;;;;;5048385;28;20060;-59
2021/09/03 05:17:50;;;;;;;18.42;9.45;;;;;;;;;;5047207;28;20670;-59
2021/09/03 05:20:16;;;;;;;18.05;9.80;;;;;;;;;;5049761;28;20033;-59
2021/09/03 05:22:42;;;;;;;18.27;9.88;;;;;;;;;;5049697;28;20107;-59
2021/09/03 05:25:13;;;;;;;20.42;10.85;;;;;;;;;;5048639;28;20484;-59
2021/09/03 05:27:40;;;;;;;19.17;9.90;;;;;;;;;;5049933;28;20029;-59
2021/09/03 05:30:05;;;;;;;23.63;10.85;;;;;;;;;;5062506;28;20090;-59
2021/09/03 05:32:31;;;;;;;21.98;10.63;;;;;;;;;;5048223;28;20033;-60
2021/09/03 05:34:56;;;;;;;18.95;10.05;;;;;;;;;;5049876;28;20067;-59
2021/09/03 05:37:21;;;;;;;19.92;9.95;;;;;;;;;;5052398;28;20429;-59
2021/09/03 05:39:47;;;;;;;17.35;9.02;;;;;;;;;;5045819;28;20075;-59
2021/09/03 05:42:12;;;;;;;16.83;9.13;;;;;;;;;;5065169;28;20070;-59
2021/09/03 05:44:38;;;;;;;18.73;9.05;;;;;;;;;;5052835;28;20040;-59
2021/09/03 05:47:03;;;;;;;18.17;9.52;;;;;;;;;;5050336;28;20418;-58
2021/09/03 05:49:29;;;;;;;20.02;9.68;;;;;;;;;;5051487;28;20085;-60
2021/09/03 05:51:54;;;;;;;22.90;11.77;;;;;;;;;;5050948;28;20044;-58
2021/09/03 05:54:20;;;;;;;23.63;11.77;;;;;;;;;;5063735;28;20031;-58
2021/09/03 05:56:45;;;;;;;25.85;11.75;;;;;;;;;;5051288;28;20033;-58
2021/09/03 05:59:10;;;;;;;24.25;11.63;;;;;;;;;;5046322;28;20032;-59
2021/09/03 06:01:36;;;;;;;21.02;11.65;;;;;;;;;;5052639;28;20491;-59
2021/09/03 06:04:02;;;;;;;24.13;12.07;;;;;;;;;;5049229;28;20071;-59
2021/09/03 06:06:27;;;;;;;21.63;10.88;;;;;;;;;;5045728;28;20040;-59
2021/09/03 06:08:52;;;;;;;23.48;12.38;;;;;;;;;;5046728;28;20029;-59
2021/09/03 06:11:25;;;;;;;22.05;11.48;;;;;;;;;;5047659;28;20025;-58
2021/09/03 06:13:55;;;;;;;23.98;12.18;;;;;;;;;;5047673;28;20033;-58
2021/09/03 06:16:22;;;;;;;24.20;13.27;;;;;;;;;;5045519;28;20036;-57
2021/09/03 06:18:48;;;;;;;25.10;13.02;;;;;;;;;;5047708;28;20574;-57
2021/09/03 06:21:14;;;;;;;24.73;11.80;;;;;;;;;;5048597;28;20116;-59
2021/09/03 06:23:40;;;;;;;24.45;12.45;;;;;;;;;;5062286;28;20066;-58
2021/09/03 06:26:05;;;;;;;24.65;12.70;;;;;;;;;;5063962;28;20489;-60
2021/09/03 06:28:31;;;;;;;26.27;12.48;;;;;;;;;;5049606;28;20045;-60
2021/09/03 06:30:56;;;;;;;24.70;13.30;;;;;;;;;;5050454;28;20101;-58
2021/09/03 06:33:21;;;;;;;23.55;12.75;;;;;;;;;;5048350;28;20031;-58
2021/09/03 06:35:47;;;;;;;24.90;12.55;;;;;;;;;;5048418;28;20396;-59
2021/09/03 06:38:12;;;;;;;25.48;12.63;;;;;;;;;;5046531;28;20025;-59
2021/09/03 06:40:38;;;;;;;24.02;12.90;;;;;;;;;;5047504;28;20036;-59
2021/09/03 06:43:03;;;;;;;23.98;12.85;;;;;;;;;;5051083;28;20064;-58
2021/09/03 06:45:28;;;;;;;25.33;12.32;;;;;;;;;;5047396;28;20029;-58
2021/09/03 06:47:54;;;;;;;22.65;12.05;;;;;;;;;;5030854;28;20055;-59
2021/09/03 06:50:20;;;;;;;25.23;13.25;;;;;;;;;;5048858;28;20028;-58
2021/09/03 06:52:45;;;;;;;24.55;13.43;;;;;;;;;;5051604;28;20032;-58
2021/09/03 06:55:13;;;;;;;25.77;13.35;;;;;;;;;;5044294;28;20025;-59
2021/09/03 06:57:39;;;;;;;26.42;13.32;;;;;;;;;;5047070;28;20024;-58
2021/09/03 07:00:06;;;;;;;26.00;13.30;;;;;;;;;;5046756;28;20048;-59
2021/09/03 07:02:31;;;;;;;24.02;13.63;;;;;;;;;;5052632;28;20032;-59
2021/09/03 07:04:56;;;;;;;26.20;13.10;;;;;;;;;;5046635;28;20506;-58
2021/09/03 07:07:22;;;;;;;21.48;12.40;;;;;;;;;;5045808;28;20040;-58
2021/09/03 07:09:48;;;;;;;29.90;14.68;;;;;;;;;;5046252;28;20037;-59
2021/09/03 07:12:13;;;;;;;33.28;16.23;;;;;;;;;;5048022;28;20028;-59
2021/09/03 07:14:40;;;;;;;29.73;15.05;;;;;;;;;;5051227;28;20112;-59
2021/09/03 07:17:06;;;;;;;23.08;12.48;;;;;;;;;;5051128;28;20024;-59
2021/09/03 07:19:35;;;;;;;22.17;10.98;;;;;;;;;;5050826;28;20053;-59
2021/09/03 07:22:02;;;;;;;25.30;12.13;;;;;;;;;;5050468;28;20182;-59
2021/09/03 07:24:28;;;;;;;24.13;12.52;;;;;;;;;;5053953;28;20044;-58
2021/09/03 07:26:54;;;;;;;27.00;13.38;;;;;;;;;;5052778;28;20538;-59
2021/09/03 07:29:19;;;;;;;25.35;13.48;;;;;;;;;;5051159;28;20428;-58
2021/09/03 07:31:44;;;;;;;26.52;14.20;;;;;;;;;;5052207;28;20107;-58
2021/09/03 07:34:10;;;;;;;28.00;13.82;;;;;;;;;;5049692;28;20090;-58
2021/09/03 07:36:36;;;;;;;27.85;14.00;;;;;;;;;;5052179;28;20020;-58
2021/09/03 07:39:02;;;;;;;25.25;13.65;;;;;;;;;;5051318;28;20059;-58
2021/09/03 07:41:28;;;;;;;25.55;13.70;;;;;;;;;;5052917;28;20036;-58
2021/09/03 07:43:53;;;;;;;25.48;14.05;;;;;;;;;;5050300;28;20028;-58
2021/09/03 07:46:19;;;;;;;24.77;13.95;;;;;;;;;;5053005;28;20025;-58
2021/09/03 07:48:44;;;;;;;26.08;13.77;;;;;;;;;;5054942;28;20054;-59
2021/09/03 07:51:10;;;;;;;23.77;12.18;;;;;;;;;;5054357;28;20032;-58
2021/09/03 07:53:35;;;;;;;27.10;12.73;;;;;;;;;;5065681;28;20067;-59
2021/09/03 07:56:03;;;;;;;22.80;11.50;;;;;;;;;;5052676;28;20429;-58
2021/09/03 07:58:28;;;;;;;24.85;12.65;;;;;;;;;;5066017;28;20460;-58
2021/09/03 08:00:54;;;;;;;24.65;12.05;;;;;;;;;;5054323;28;20037;-59
2021/09/03 08:03:19;;;;;;;23.17;12.35;;;;;;;;;;5064407;28;20032;-58
2021/09/03 08:05:44;;;;;;;21.70;12.63;;;;;;;;;;5048802;28;20472;-60
2021/09/03 08:08:10;;;;;;;22.83;12.32;;;;;;;;;;5049778;28;20049;-58
2021/09/03 08:10:37;;;;;;;22.10;11.80;;;;;;;;;;5050343;28;20469;-59
2021/09/03 08:13:03;;;;;;;24.58;13.13;;;;;;;;;;5050317;28;20083;-58
2021/09/03 08:15:30;;;;;;;21.88;11.95;;;;;;;;;;5049724;28;20492;-58
2021/09/03 08:17:56;;;;;;;22.38;12.27;;;;;;;;;;5047723;28;20029;-58
2021/09/03 08:20:22;;;;;;;20.95;11.77;;;;;;;;;;5052309;28;20043;-59
2021/09/03 08:22:50;;;;;;;23.27;12.30;;;;;;;;;;5050861;28;20024;-59
2021/09/03 08:25:16;;;;;;;25.20;12.05;;;;;;;;;;5049838;28;20441;-59
2021/09/03 08:27:41;;;;;;;22.17;12.32;;;;;;;;;;5050116;28;20021;-59
2021/09/03 08:30:08;;;;;;;19.90;11.52;;;;;;;;;;5053596;28;20510;-59
2021/09/03 08:32:34;;;;;;;22.52;12.48;;;;;;;;;;5050743;28;20052;-59
2021/09/03 08:35:00;;;;;;;21.90;12.27;;;;;;;;;;5049678;28;20534;-58
2021/09/03 08:37:26;;;;;;;23.98;12.05;;;;;;;;;;5048688;28;20033;-59
2021/09/03 08:39:51;;;;;;;20.60;12.30;;;;;;;;;;5049530;28;20032;-60
2021/09/03 08:42:17;;;;;;;21.35;11.70;;;;;;;;;;5050645;28;20085;-60
2021/09/03 08:44:44;;;;;;;23.45;12.10;;;;;;;;;;5047796;28;21218;-59
2021/09/03 08:47:10;;;;;;;21.23;11.23;;;;;;;;;;5049068;28;20503;-59
2021/09/03 08:49:36;;;;;;;21.52;11.82;;;;;;;;;;5048298;28;20025;-59
2021/09/03 08:52:01;;;;;;;23.58;12.77;;;;;;;;;;5051431;28;20025;-59
2021/09/03 08:54:27;;;;;;;22.38;12.43;;;;;;;;;;5046088;28;20481;-59
2021/09/03 08:56:52;;;;;;;22.88;12.15;;;;;;;;;;5049798;28;20037;-59
2021/09/03 08:59:17;;;;;;;23.33;12.85;;;;;;;;;;5051081;28;20032;-59
2021/09/03 09:01:43;;;;;;;19.95;11.38;;;;;;;;;;5047186;28;20045;-60
2021/09/03 09:04:15;;;;;;;20.55;11.55;;;;;;;;;;5048247;28;20129;-59
2021/09/03 09:07:01;;;;;;;22.17;12.10;;;;;;;;;;5050044;28;20475;-59
2021/09/03 09:09:32;;;;;;;20.52;11.88;;;;;;;;;;5046983;28;20055;-59
2021/09/03 09:12:04;;;;;;;21.73;12.50;;;;;;;;;;5048874;28;20174;-59
2021/09/03 09:14:30;;;;;;;21.02;11.32;;;;;;;;;;5063995;28;20059;-60
2021/09/03 09:17:02;;;;;;;19.20;11.45;;;;;;;;;;5049153;28;20052;-58
2021/09/03 09:19:28;;;;;;;19.98;10.43;;;;;;;;;;5049527;28;20029;-59
2021/09/03 09:21:59;;;;;;;29.65;16.65;;;;;;;;;;5051171;28;20075;-59
2021/09/03 09:24:25;;;;;;;24.92;13.50;;;;;;;;;;5048369;28;20028;-59
2021/09/03 09:26:58;;;;;;;20.67;11.60;;;;;;;;;;5048135;28;20028;-58
2021/09/03 09:29:31;;;;;;;20.80;11.75;;;;;;;;;;5051929;28;20036;-59
2021/09/03 09:32:09;;;;;;;19.70;11.20;;;;;;;;;;5047900;28;20116;-59
2021/09/03 09:34:37;;;;;;;21.55;11.82;;;;;;;;;;5051544;28;20025;-59
2021/09/03 09:37:08;;;;;;;19.95;11.75;;;;;;;;;;5051874;28;20020;-59
2021/09/03 09:39:50;;;;;;;20.15;11.18;;;;;;;;;;5048439;28;20037;-59
2021/09/03 09:42:30;;;;;;;20.38;11.50;;;;;;;;;;5051887;28;20020;-59
2021/09/03 09:45:08;;;;;;;19.88;11.73;;;;;;;;;;5048362;28;20027;-59
2021/09/03 09:47:36;;;;;;;18.60;11.60;;;;;;;;;;5048122;28;20017;-59
2021/09/03 09:50:27;;;;;;;18.05;11.35;;;;;;;;;;5055573;28;20035;-59
2021/09/03 09:52:53;;;;;;;22.20;11.20;;;;;;;;;;5055299;28;20108;-59
2021/09/03 09:55:18;;;;;;;17.05;11.02;;;;;;;;;;5050107;28;20383;-59
2021/09/03 09:57:49;;;;;;;19.05;10.98;;;;;;;;;;5048827;28;20021;-59
2021/09/03 10:00:14;;;;;;;16.88;11.00;;;;;;;;;;5046766;28;20075;-59
2021/09/03 10:02:43;;;;;;;16.75;10.48;;;;;;;;;;5047437;28;20410;-59
2021/09/03 10:05:09;;;;;;;15.80;10.15;;;;;;;;;;5047503;28;20029;-58
2021/09/03 10:07:35;;;;;;;16.60;10.40;;;;;;;;;;5044834;28;20462;-60
2021/09/03 10:10:01;;;;;;;18.05;10.60;;;;;;;;;;5046278;28;20051;-59
2021/09/03 10:12:27;;;;;;;16.13;10.00;;;;;;;;;;5047974;28;20395;-59
2021/09/03 10:14:53;;;;;;;18.05;10.95;;;;;;;;;;5048946;28;20040;-60
2021/09/03 10:17:20;;;;;;;17.95;11.35;;;;;;;;;;5047835;28;20047;-59
2021/09/03 10:19:50;;;;;;;17.00;10.27;;;;;;;;;;5045964;28;20488;-60
2021/09/03 10:22:17;;;;;;;18.02;10.90;;;;;;;;;;5047319;28;20036;-59
2021/09/03 10:24:45;;;;;;;16.17;10.27;;;;;;;;;;5048929;28;20128;-60
2021/09/03 10:27:12;;;;;;;19.55;10.38;;;;;;;;;;5049088;28;20028;-60
2021/09/03 10:29:46;;;;;;;20.58;10.48;;;;;;;;;;5049577;28;20036;-59
2021/09/03 10:32:23;;;;;;;17.73;10.60;;;;;;;;;;5047261;28;20123;-60
2021/09/03 10:34:59;;;;;;;17.17;10.50;;;;;;;;;;5046589;28;20021;-60
2021/09/03 10:37:27;;;;;;;18.02;10.60;;;;;;;;;;5044358;28;20024;-60
2021/09/03 10:40:03;;;;;;;16.45;11.07;;;;;;;;;;5047396;28;20033;-60
2021/09/03 10:42:42;;;;;;;21.73;10.85;;;;;;;;;;5051630;28;20047;-60
2021/09/03 10:45:10;;;;;;;16.77;10.63;;;;;;;;;;5050789;28;20036;-60
2021/09/03 10:47:39;;;;;;;18.48;10.57;;;;;;;;;;5047556;28;20083;-60
2021/09/03 10:50:20;;;;;;;17.92;10.85;;;;;;;;;;5052283;28;20017;-59
2021/09/03 10:53:04;;;;;;;17.67;10.63;;;;;;;;;;5048043;28;20124;-59
2021/09/03 10:55:48;;;;;;;19.25;11.45;;;;;;;;;;5048738;28;20037;-59
2021/09/03 10:58:46;;;;;;;18.25;10.48;;;;;;;;;;5045371;28;20025;-59
2021/09/03 11:01:12;;;;;;;17.52;10.82;;;;;;;;;;5046179;28;20056;-59
2021/09/03 11:03:44;;;;;;;14.98;10.32;;;;;;;;;;5043536;28;20090;-59
2021/09/03 11:06:16;;;;;;;15.70;9.75;;;;;;;;;;5044569;28;20028;-59
2021/09/03 11:08:46;;;;;;;17.23;10.07;;;;;;;;;;5047269;28;20385;-59
2021/09/03 11:11:30;;;;;;;17.83;10.80;;;;;;;;;;5048055;28;20391;-60
2021/09/03 11:14:03;;;;;;;18.42;10.07;;;;;;;;;;5044005;28;20112;-60
2021/09/03 11:16:35;;;;;;;21.52;10.18;;;;;;;;;;5049328;28;20029;-59
2021/09/03 11:19:12;;;;;;;18.00;11.35;;;;;;;;;;5045444;28;20392;-59
2021/09/03 11:21:51;;;;;;;16.45;10.55;;;;;;;;;;5048015;28;20090;-59
2021/09/03 11:24:18;;;;;;;;;;;;;;;;;;5048430;28;20510;-59
2021/09/03 11:26:45;;;;;;;16.77;10.68;;;;;;;;;;5048925;28;20294;-59
2021/09/03 11:29:20;;;;;;;13.40;9.82;;;;;;;;;;5046688;28;20079;-59
2021/09/03 11:32:20;;;;;;;19.33;9.88;;;;;;;;;;5049519;28;20053;-59
2021/09/03 11:34:52;;;;;;;17.42;10.60;;;;;;;;;;5064322;28;20091;-59
2021/09/03 11:37:24;;;;;;;16.20;10.27;;;;;;;;;;5046870;28;20027;-59
2021/09/03 11:39:52;;;;;;;16.20;9.88;;;;;;;;;;5047949;28;20025;-60
2021/09/03 11:42:24;;;;;;;16.17;10.40;;;;;;;;;;5047707;28;20414;-60
2021/09/03 11:44:54;;;;;;;21.40;13.05;;;;;;;;;;5050940;28;20103;-59
2021/09/03 11:47:28;;;;;;;17.30;10.90;;;;;;;;;;5050702;28;20070;-60
2021/09/03 11:49:53;;;;;;;17.17;9.13;;;;;;;;;;5045129;28;20493;-60
2021/09/03 11:52:28;;;;;;;15.63;9.82;;;;;;;;;;5046664;28;20028;-61
2021/09/03 11:54:54;;;;;;;17.15;10.50;;;;;;;;;;5049776;28;20029;-61
2021/09/03 11:57:21;;;;;;;17.00;10.73;;;;;;;;;;5040191;28;20502;-60
2021/09/03 11:59:58;;;;;;;17.88;10.32;;;;;;;;;;5050990;28;20032;-61
2021/09/03 12:02:28;;;;;;;17.00;10.55;;;;;;;;;;5050112;28;20029;-60
2021/09/03 12:04:56;;;;;;;20.67;11.23;;;;;;;;;;5050494;28;20403;-61
2021/09/03 12:07:24;;;;;;;20.58;12.98;;;;;;;;;;5049973;28;20017;-61
2021/09/03 12:09:54;;;;;;;16.90;11.40;;;;;;;;;;5061170;28;20115;-60
2021/09/03 12:12:38;;;;;;;21.08;13.27;;;;;;;;;;5052200;28;20519;-61
2021/09/03 12:15:04;;;;;;;20.38;11.30;;;;;;;;;;5051604;28;20502;-61
2021/09/03 12:17:41;;;;;;;20.65;12.35;;;;;;;;;;5051208;28;20037;-60
2021/09/03 12:20:16;;;;;;;16.17;9.95;;;;;;;;;;5065764;28;20021;-60
2021/09/03 12:22:54;;;;;;;13.13;8.70;;;;;;;;;;5049658;28;20024;-61
2021/09/03 12:25:30;;;;;;;16.35;9.45;;;;;;;;;;5052515;28;20506;-61
2021/09/03 12:28:19;;;;;;;15.48;9.20;;;;;;;;;;5053814;28;20075;-60
2021/09/03 12:30:51;;;;;;;13.60;9.80;;;;;;;;;;5052315;28;20056;-60
2021/09/03 12:33:20;;;;;;;19.25;10.68;;;;;;;;;;5050941;28;20024;-60
2021/09/03 12:35:46;;;;;;;14.93;9.15;;;;;;;;;;5049489;28;20028;-60
2021/09/03 12:38:11;;;;;;;13.18;9.65;;;;;;;;;;5052663;28;20886;-61
2021/09/03 12:40:37;;;;;;;13.77;8.45;;;;;;;;;;5052401;28;20480;-61
2021/09/03 12:43:02;;;;;;;12.77;9.00;;;;;;;;;;5051006;28;20029;-60
2021/09/03 12:45:47;;;;;;;14.82;9.45;;;;;;;;;;5050996;28;20058;-60
2021/09/03 12:48:13;;;;;;;13.00;8.82;;;;;;;;;;5051680;28;20024;-61
2021/09/03 12:50:46;;;;;;;17.02;9.93;;;;;;;;;;5051107;28;20023;-61
2021/09/03 12:53:19;;;;;;;16.77;9.68;;;;;;;;;;5045432;28;20033;-60
2021/09/03 12:55:45;;;;;;;13.63;9.18;;;;;;;;;;5051842;28;20032;-60
2021/09/03 12:58:11;;;;;;;12.30;8.52;;;;;;;;;;5048567;28;20033;-60
2021/09/03 13:00:36;;;;;;;12.40;8.88;;;;;;;;;;5048702;28;20031;-60
2021/09/03 13:03:01;;;;;;;15.00;9.68;;;;;;;;;;5048075;28;20047;-60
2021/09/03 13:05:27;;;;;;;15.50;9.05;;;;;;;;;;5049780;28;20310;-60
2021/09/03 13:07:52;;;;;;;14.55;8.93;;;;;;;;;;5047812;28;20111;-60
2021/09/03 13:10:18;;;;;;;16.13;9.30;;;;;;;;;;5048812;28;20020;-60
2021/09/03 13:12:44;;;;;;;11.60;8.75;;;;;;;;;;5048532;28;20392;-60
2021/09/03 13:15:09;;;;;;;13.55;8.60;;;;;;;;;;5051043;28;20078;-60
2021/09/03 13:17:35;;;;;;;12.50;8.73;;;;;;;;;;5048828;28;20393;-60
2021/09/03 13:20:00;;;;;;;14.73;9.07;;;;;;;;;;5048098;28;20052;-60
2021/09/03 13:22:26;;;;;;;14.40;8.90;;;;;;;;;;5048249;28;20025;-61
2021/09/03 13:24:51;;;;;;;14.98;9.68;;;;;;;;;;5064687;28;20108;-60
2021/09/03 13:27:17;;;;;;;15.85;9.20;;;;;;;;;;5053943;28;20036;-60
2021/09/03 13:29:42;;;;;;;20.08;9.98;;;;;;;;;;5046982;28;20044;-60
2021/09/03 13:32:08;;;;;;;13.75;9.07;;;;;;;;;;5048893;28;20033;-60
2021/09/03 13:34:33;;;;;;;21.92;9.27;;;;;;;;;;5047461;28;20051;-61
2021/09/03 13:36:59;;;;;;;19.63;9.70;;;;;;;;;;5050526;28;20120;-61
2021/09/03 13:39:24;;;;;;;14.57;9.27;;;;;;;;;;5050481;28;20041;-60
2021/09/03 13:41:49;;;;;;;14.05;8.40;;;;;;;;;;5064630;28;20032;-60
2021/09/03 13:44:15;;;;;;;12.32;8.95;;;;;;;;;;5052760;28;20344;-60
2021/09/03 13:46:43;;;;;;;11.82;8.35;;;;;;;;;;5047983;28;20392;-61
2021/09/03 13:49:09;;;;;;;13.63;9.60;;;;;;;;;;5046719;28;20421;-61
2021/09/03 13:51:35;;;;;;;14.40;8.90;;;;;;;;;;5053025;28;20159;-60
2021/09/03 13:54:01;;;;;;;14.98;8.82;;;;;;;;;;5051203;28;20126;-60
2021/09/03 13:56:26;;;;;;;16.20;8.68;;;;;;;;;;5046519;28;20318;-61
2021/09/03 13:58:52;;;;;;;17.65;9.30;;;;;;;;;;5051995;28;20028;-62
2021/09/03 14:01:17;;;;;;;13.50;8.57;;;;;;;;;;5050283;28;20547;-61
2021/09/03 14:03:43;;;;;;;13.25;8.60;;;;;;;;;;5046838;28;20533;-61
2021/09/03 14:06:09;;;;;;;12.23;8.00;;;;;;;;;;5046362;28;20108;-61
2021/09/03 14:08:40;;;;;;;13.73;8.88;;;;;;;;;;5049329;28;20020;-61
2021/09/03 14:11:06;;;;;;;15.07;9.38;;;;;;;;;;5047887;28;20491;-61
2021/09/03 14:13:31;;;;;;;13.85;8.82;;;;;;;;;;5048452;28;20083;-61
2021/09/03 14:15:57;;;;;;;12.20;8.18;;;;;;;;;;5049635;28;20396;-61
2021/09/03 14:18:23;;;;;;;11.68;8.20;;;;;;;;;;5031981;28;20475;-61
2021/09/03 14:20:48;;;;;;;19.83;9.23;;;;;;;;;;5043861;28;20494;-60
2021/09/03 14:23:14;;;;;;;16.10;9.02;;;;;;;;;;5049176;28;20024;-61
2021/09/03 14:25:40;;;;;;;13.30;9.07;;;;;;;;;;5050690;28;20345;-62